Time;durP1;ratioP1;P1;durP2;ratioP2;P2;SDS_P1;SDS_P2;PMS_P1;PMS_P2;Temp;Humidity;BMP_temperature;BMP_pressure;BME280_temperature;BME280_humidity;BME280_pressure;Samples;Min_cycle;Max_cycle;Signal;HPM_P1;HPM_P2
2023/09/28 00:01:00;;;;;;;3.60;3.15;;;;;;;;;;5052414;28;20041;-30
2023/09/28 00:03:27;;;;;;;3.60;3.20;;;20.10;86.60;;;;;;5052989;28;20478;-28
2023/09/28 00:05:55;;;;;;;3.53;3.22;;;20.20;68.60;;;;;;5052749;28;20429;-29
2023/09/28 00:08:21;;;;;;;4.63;3.17;;;;;;;;;;5053003;28;20095;-29
2023/09/28 00:10:48;;;;;;;5.68;3.60;;;20.60;73.40;;;;;;5052613;28;20544;-29
2023/09/28 00:13:14;;;;;;;3.63;3.30;;;20.50;78.30;;;;;;5057404;28;20048;-28
2023/09/28 00:15:41;;;;;;;3.70;3.30;;;20.30;80.80;;;;;;5072610;28;20485;-29
2023/09/28 00:18:08;;;;;;;3.88;3.35;;;20.50;86.80;;;;;;5064733;28;20041;-28
2023/09/28 00:20:35;;;;;;;4.07;3.63;;;20.40;73.90;;;;;;5052316;28;20041;-29
2023/09/28 00:23:03;;;;;;;3.67;3.22;;;20.10;68.60;;;;;;5072587;28;20040;-29
2023/09/28 00:25:30;;;;;;;4.57;3.22;;;;;;;;;;5060670;28;20064;-28
2023/09/28 00:27:57;;;;;;;4.35;3.65;;;20.10;68.60;;;;;;5067264;28;20071;-28
2023/09/28 00:30:26;;;;;;;3.35;3.05;;;;;;;;;;5072458;28;20048;-29
2023/09/28 00:32:52;;;;;;;3.90;3.50;;;21.30;69.30;;;;;;5071367;28;20056;-28
2023/09/28 00:35:19;;;;;;;4.18;3.47;;;19.80;86.40;;;;;;5054359;28;20446;-29
2023/09/28 00:37:46;;;;;;;3.47;3.15;;;;;;;;;;5058004;28;20433;-29
2023/09/28 00:40:18;;;;;;;3.80;3.35;;;20.10;74.70;;;;;;5064564;28;20044;-29
2023/09/28 00:42:44;;;;;;;3.33;3.03;;;20.10;68.60;;;;;;5071463;28;20048;-28
2023/09/28 00:45:11;;;;;;;4.47;3.30;;;19.80;76.20;;;;;;5068328;28;20045;-28
2023/09/28 00:47:38;;;;;;;4.10;3.67;;;20.40;85.40;;;;;;5060151;28;20409;-27
2023/09/28 00:50:09;;;;;;;3.83;3.45;;;20.20;68.70;;;;;;5071770;28;20098;-28
2023/09/28 00:52:35;;;;;;;3.70;3.30;;;20.50;86.40;;;;;;5060774;28;20055;-28
2023/09/28 00:55:03;;;;;;;3.60;3.30;;;19.20;86.00;;;;;;5066399;28;20044;-28
2023/09/28 00:57:33;;;;;;;3.70;3.40;;;20.10;74.00;;;;;;5054843;28;20474;-28
2023/09/28 01:00:00;;;;;;;4.05;3.65;;;20.40;81.80;;;;;;5052203;28;20128;-28
2023/09/28 01:02:27;;;;;;;3.35;3.05;;;;;;;;;;5068501;28;20505;-29
2023/09/28 01:04:54;;;;;;;4.35;3.85;;;20.20;86.60;;;;;;5067786;28;20037;-28
2023/09/28 01:07:25;;;;;;;3.70;3.40;;;20.20;86.60;;;;;;5051790;28;20512;-28
2023/09/28 01:09:53;;;;;;;3.72;3.35;;;20.40;86.60;;;;;;5065551;28;20048;-28
2023/09/28 01:12:21;;;;;;;4.30;3.83;;;19.30;81.90;;;;;;5071080;28;20566;-28
2023/09/28 01:14:48;;;;;;;3.80;3.47;;;20.10;68.70;;;;;;5071916;28;20060;-30
2023/09/28 01:17:16;;;;;;;3.50;3.20;;;20.80;72.70;;;;;;5067492;28;20072;-28
2023/09/28 01:19:42;;;;;;;3.47;3.17;;;20.00;86.50;;;;;;5070847;28;20425;-28
2023/09/28 01:22:14;;;;;;;4.35;3.70;;;20.60;86.80;;;;;;5059010;28;20102;-28
2023/09/28 01:24:40;;;;;;;3.95;3.60;;;20.30;87.10;;;;;;5059442;28;20060;-29
2023/09/28 01:27:07;;;;;;;4.07;3.67;;;20.50;86.80;;;;;;5060482;28;20055;-28
2023/09/28 01:29:33;;;;;;;4.03;3.63;;;20.40;87.20;;;;;;5058485;28;20559;-27
2023/09/28 01:31:59;;;;;;;6.03;4.10;;;20.60;86.90;;;;;;5051915;28;20052;-28
2023/09/28 01:34:25;;;;;;;4.38;3.92;;;19.70;71.50;;;;;;5051933;28;20041;-28
2023/09/28 01:36:53;;;;;;;3.75;3.45;;;;;;;;;;5060072;28;20045;-32
2023/09/28 01:39:20;;;;;;;4.97;3.50;;;18.80;86.00;;;;;;5071714;28;20059;-29
2023/09/28 01:41:47;;;;;;;5.10;3.83;;;20.00;87.10;;;;;;5071556;28;20070;-29
2023/09/28 01:44:13;;;;;;;4.38;3.97;;;21.10;87.20;;;;;;5058463;28;20048;-28
2023/09/28 01:46:40;;;;;;;4.18;3.78;;;20.10;87.50;;;;;;5075756;28;20055;-28
2023/09/28 01:49:06;;;;;;;4.07;3.67;;;19.50;70.70;;;;;;5068067;28;20041;-29
2023/09/28 01:51:33;;;;;;;5.35;3.72;;;;;;;;;;5055410;28;20048;-29
2023/09/28 01:53:59;;;;;;;3.88;3.58;;;19.10;86.60;;;;;;5055464;28;20059;-29
2023/09/28 01:56:27;;;;;;;3.90;3.55;;;20.00;87.10;;;;;;5055437;28;20041;-28
2023/09/28 01:58:54;;;;;;;4.40;4.00;;;20.30;86.10;;;;;;5055200;28;20053;-28
2023/09/28 02:01:23;;;;;;;4.32;3.78;;;18.70;86.10;;;;;;5062777;28;20048;-28
2023/09/28 02:03:50;;;;;;;4.10;3.70;;;20.30;84.40;;;;;;5075155;28;20049;-28
2023/09/28 02:06:16;;;;;;;4.25;3.85;;;20.80;69.50;;;;;;5074999;28;20402;-29
2023/09/28 02:08:43;;;;;;;4.20;3.80;;;;;;;;;;5075108;28;20051;-30
2023/09/28 02:11:10;;;;;;;4.00;3.60;;;19.70;86.50;;;;;;5074743;28;20460;-28
2023/09/28 02:13:39;;;;;;;4.15;3.75;;;20.00;68.80;;;;;;5074969;28;20085;-30
2023/09/28 02:16:09;;;;;;;4.22;3.75;;;20.00;68.90;;;;;;5074908;28;20501;-29
2023/09/28 02:18:36;;;;;;;4.40;4.00;;;;;;;;;;5074848;28;20056;-28
2023/09/28 02:21:03;;;;;;;4.00;3.60;;;20.20;86.90;;;;;;5074747;28;20416;-30
2023/09/28 02:23:31;;;;;;;4.20;3.80;;;20.40;87.70;;;;;;5074677;28;20048;-28
2023/09/28 02:26:05;;;;;;;4.82;4.10;;;19.70;78.00;;;;;;5054759;28;20081;-29
2023/09/28 02:28:32;;;;;;;4.20;3.80;;;;;;;;;;5063474;28;20127;-28
2023/09/28 02:31:05;;;;;;;4.22;3.83;;;19.90;86.70;;;;;;5074495;28;20056;-28
2023/09/28 02:33:32;;;;;;;4.32;3.90;;;;;;;;;;5072998;28;20048;-30
2023/09/28 02:35:58;;;;;;;4.30;3.90;;;19.80;86.60;;;;;;5073707;28;20459;-28
2023/09/28 02:38:25;;;;;;;4.30;3.90;;;;;;;;;;5072761;28;20041;-28
2023/09/28 02:40:52;;;;;;;4.22;3.83;;;;;;;;;;5066135;28;20485;-30
2023/09/28 02:43:19;;;;;;;4.32;3.90;;;;;;;;;;5060642;28;20048;-29
2023/09/28 02:45:45;;;;;;;4.32;3.80;;;19.60;86.70;;;;;;5070720;28;20048;-28
2023/09/28 02:48:13;;;;;;;4.20;3.80;;;19.00;86.30;;;;;;5054900;28;20048;-29
2023/09/28 02:50:39;;;;;;;4.63;4.03;;;19.40;87.30;;;;;;5054257;28;20406;-28
2023/09/28 02:53:07;;;;;;;4.15;3.75;;;20.10;86.80;;;;;;5054694;28;20044;-28
2023/09/28 02:55:33;;;;;;;4.22;3.83;;;21.00;87.40;;;;;;5054204;28;20084;-27
2023/09/28 02:58:01;;;;;;;4.30;3.90;;;20.50;87.40;;;;;;5053285;28;20080;-29
2023/09/28 03:00:28;;;;;;;4.60;4.20;;;20.70;74.50;;;;;;5054304;28;20118;-29
2023/09/28 03:02:57;;;;;;;4.38;3.97;;;;;;;;;;5066487;28;20049;-29
2023/09/28 03:05:24;;;;;;;4.47;4.07;;;20.10;86.30;;;;;;5068368;28;20048;-28
2023/09/28 03:07:51;;;;;;;4.25;3.85;;;;;;;;;;5053822;28;20049;-29
2023/09/28 03:10:17;;;;;;;4.10;3.70;;;19.50;86.60;;;;;;5053971;28;20071;-28
2023/09/28 03:12:46;;;;;;;4.13;3.72;;;19.20;86.50;;;;;;5053661;28;20489;-28
2023/09/28 03:15:12;;;;;;;4.03;3.60;;;20.30;87.10;;;;;;5053902;28;20128;-28
2023/09/28 03:17:39;;;;;;;4.15;3.75;;;20.00;87.80;;;;;;5065857;28;20560;-28
2023/09/28 03:20:09;;;;;;;4.18;3.70;;;20.20;70.80;;;;;;5060072;28;20456;-28
2023/09/28 03:22:37;;;;;;;4.30;3.80;;;20.10;86.80;;;;;;5069948;28;20049;-29
2023/09/28 03:25:11;;;;;;;4.20;3.80;;;20.40;87.10;;;;;;5053626;28;20079;-28
2023/09/28 03:27:38;;;;;;;4.40;4.00;;;;;;;;;;5055386;28;20047;-29
2023/09/28 03:30:10;;;;;;;4.25;3.85;;;18.80;86.30;;;;;;5073344;28;20044;-33
2023/09/28 03:32:37;;;;;;;4.05;3.67;;;19.90;86.80;;;;;;5070858;28;20032;-32
2023/09/28 03:35:04;;;;;;;4.22;3.83;;;19.90;68.80;;;;;;5053515;28;20045;-33
2023/09/28 03:37:31;;;;;;;4.47;4.07;;;;;;;;;;5059443;28;20052;-33
2023/09/28 03:40:00;;;;;;;4.30;3.90;;;19.90;68.80;;;;;;5059874;28;20048;-33
2023/09/28 03:42:27;;;;;;;4.38;3.80;;;19.90;68.80;;;;;;5058608;28;20090;-36
2023/09/28 03:44:54;;;;;;;4.50;3.75;;;21.30;69.60;;;;;;5054624;28;20041;-32
2023/09/28 03:47:21;;;;;;;5.57;4.55;;;20.20;87.80;;;;;;5073429;28;20071;-36
2023/09/28 03:49:48;;;;;;;4.43;4.03;;;20.20;87.30;;;;;;5073187;28;20052;-34
2023/09/28 03:52:15;;;;;;;4.75;4.10;;;21.00;87.40;;;;;;5072751;28;20056;-34
2023/09/28 03:54:42;;;;;;;4.40;4.00;;;;;;;;;;5073201;28;20056;-37
2023/09/28 03:57:10;;;;;;;4.80;4.30;;;21.10;83.40;;;;;;5070990;28;20448;-34
2023/09/28 03:59:37;;;;;;;4.53;4.05;;;20.20;87.00;;;;;;5068393;28;20049;-34
2023/09/28 04:02:04;;;;;;;4.38;3.70;;;19.70;71.10;;;;;;5072741;28;20052;-37
2023/09/28 04:04:31;;;;;;;4.30;3.90;;;19.30;74.40;;;;;;5072880;28;20045;-34
2023/09/28 04:06:58;;;;;;;4.20;3.80;;;21.00;87.40;;;;;;5072748;28;20056;-33
2023/09/28 04:09:25;;;;;;;4.25;3.83;;;20.00;77.90;;;;;;5072755;28;20052;-35
2023/09/28 04:11:51;;;;;;;4.75;4.05;;;18.80;86.40;;;;;;5072321;28;20045;-34
2023/09/28 04:14:20;;;;;;;4.30;3.78;;;19.90;68.90;;;;;;5072776;28;20044;-33
2023/09/28 04:16:47;;;;;;;4.45;3.90;;;19.50;87.00;;;;;;5072605;28;20592;-36
2023/09/28 04:19:13;;;;;;;3.85;3.45;;;20.00;79.20;;;;;;5072280;28;20072;-35
2023/09/28 04:21:41;;;;;;;4.55;4.10;;;;;;;;;;5072753;28;20051;-33
2023/09/28 04:24:08;;;;;;;4.43;4.03;;;;;;;;;;5072561;28;20048;-32
2023/09/28 04:26:35;;;;;;;4.32;3.92;;;20.00;87.00;;;;;;5072561;28;20511;-35
2023/09/28 04:29:02;;;;;;;4.70;4.20;;;;;;;;;;5066414;28;20041;-34
2023/09/28 04:31:30;;;;;;;4.60;4.10;;;20.30;87.20;;;;;;5052211;28;20754;-35
2023/09/28 04:33:58;;;;;;;4.65;4.20;;;19.40;71.10;;;;;;5053427;28;20048;-32
2023/09/28 04:36:25;;;;;;;4.68;4.00;;;20.00;87.00;;;;;;5052913;28;20114;-34
2023/09/28 04:38:52;;;;;;;4.82;4.00;;;;;;;;;;5052257;28;20041;-35
2023/09/28 04:41:19;;;;;;;4.03;3.63;;;19.50;86.80;;;;;;5056094;28;20463;-34
2023/09/28 04:43:46;;;;;;;5.20;3.90;;;;;;;;;;5071594;28;20074;-33
2023/09/28 04:46:13;;;;;;;4.60;4.10;;;19.50;87.60;;;;;;5071925;28;20048;-37
2023/09/28 04:48:41;;;;;;;4.28;3.88;;;19.70;81.90;;;;;;5071554;28;20102;-35
2023/09/28 04:51:09;;;;;;;4.43;3.92;;;;;;;;;;5065159;28;20448;-31
2023/09/28 04:53:36;;;;;;;4.38;3.97;;;20.50;87.40;;;;;;5052331;28;20045;-32
2023/09/28 04:56:10;;;;;;;3.97;3.65;;;19.70;75.90;;;;;;5057637;28;20075;-28
2023/09/28 04:58:37;;;;;;;5.03;4.32;;;20.80;86.70;;;;;;5052138;28;20106;-29
2023/09/28 05:01:03;;;;;;;4.57;4.05;;;20.00;87.40;;;;;;5051907;28;20478;-28
2023/09/28 05:03:30;;;;;;;4.40;3.80;;;19.80;87.00;;;;;;5063193;28;20124;-27
2023/09/28 05:05:58;;;;;;;4.30;3.90;;;19.60;77.80;;;;;;5063941;28;20510;-29
2023/09/28 05:08:25;;;;;;;4.82;4.05;;;18.60;78.10;;;;;;5053056;28;20084;-29
2023/09/28 05:10:52;;;;;;;4.18;3.78;;;19.50;87.20;;;;;;5071550;28;20144;-28
2023/09/28 05:13:19;;;;;;;4.82;4.00;;;;;;;;;;5071622;28;20059;-30
2023/09/28 05:15:46;;;;;;;4.65;4.15;;;19.80;87.50;;;;;;5067342;28;20497;-28
2023/09/28 05:18:13;;;;;;;4.05;3.65;;;;;;;;;;5071025;28;20098;-29
2023/09/28 05:20:40;;;;;;;4.55;4.07;;;19.60;87.40;;;;;;5067696;28;20116;-28
2023/09/28 05:23:09;;;;;;;4.32;3.75;;;19.30;72.80;;;;;;5051856;28;20055;-29
2023/09/28 05:25:37;;;;;;;4.60;3.67;;;;;;;;;;5056947;28;20041;-29
2023/09/28 05:28:05;;;;;;;4.65;3.85;;;19.60;73.70;;;;;;5060529;28;20448;-28
2023/09/28 05:30:31;;;;;;;4.40;3.95;;;20.20;77.80;;;;;;5057358;28;20120;-28
2023/09/28 05:32:58;;;;;;;4.68;4.13;;;19.80;87.20;;;;;;5062929;28;20044;-29
2023/09/28 05:35:25;;;;;;;4.25;3.67;;;;;;;;;;5059039;28;20407;-32
2023/09/28 05:37:52;;;;;;;4.10;3.70;;;20.20;87.40;;;;;;5056024;28;20148;-28
2023/09/28 05:40:21;;;;;;;4.60;3.80;;;20.00;87.60;;;;;;5069026;28;20131;-34
2023/09/28 05:42:48;;;;;;;4.28;3.67;;;;;;;;;;5058274;28;20072;-34
2023/09/28 05:45:15;;;;;;;4.38;3.97;;;20.10;87.40;;;;;;5071576;28;20445;-37
2023/09/28 05:47:42;;;;;;;4.88;4.00;;;;;;;;;;5061755;28;20128;-35
2023/09/28 05:50:10;;;;;;;4.05;3.65;;;19.60;87.50;;;;;;5051563;28;20553;-33
2023/09/28 05:52:37;;;;;;;4.18;3.78;;;19.70;87.50;;;;;;5051418;28;20053;-35
2023/09/28 05:55:04;;;;;;;3.65;3.33;;;;;;;;;;5051231;28;20106;-33
2023/09/28 05:57:32;;;;;;;4.07;3.63;;;20.60;87.60;;;;;;5058625;28;20123;-34
2023/09/28 06:00:00;;;;;;;4.10;3.58;;;;;;;;;;5062454;28;20131;-35
2023/09/28 06:02:27;;;;;;;4.72;3.90;;;;;;;;;;5060931;28;20131;-31
2023/09/28 06:04:53;;;;;;;5.70;3.65;;;20.20;87.90;;;;;;5056798;28;20072;-37
2023/09/28 06:07:20;;;;;;;4.82;3.85;;;;;;;;;;5051204;28;20128;-34
2023/09/28 06:09:47;;;;;;;4.63;3.58;;;19.60;87.90;;;;;;5051338;28;20125;-33
2023/09/28 06:12:14;;;;;;;4.10;3.70;;;19.80;87.60;;;;;;5051003;28;20141;-37
2023/09/28 06:14:42;;;;;;;4.05;3.50;;;19.80;69.10;;;;;;5051328;28;20154;-34
2023/09/28 06:17:09;;;;;;;3.60;3.30;;;;;;;;;;5066293;28;20115;-30
2023/09/28 06:19:35;;;;;;;4.07;3.30;;;20.20;87.40;;;;;;5070227;28;20084;-36
2023/09/28 06:22:03;;;;;;;4.65;3.10;;;20.00;87.30;;;;;;5071239;28;20132;-34
2023/09/28 06:24:30;;;;;;;4.90;3.50;;;19.60;87.80;;;;;;5069703;28;20393;-33
2023/09/28 06:26:58;;;;;;;5.50;3.63;;;;;;;;;;5071440;28;20048;-31
2023/09/28 06:29:24;;;;;;;5.20;3.35;;;20.30;87.10;;;;;;5070502;28;20123;-34
2023/09/28 06:31:52;;;;;;;3.70;3.22;;;21.20;78.50;;;;;;5071951;28;20131;-33
2023/09/28 06:34:19;;;;;;;5.90;3.30;;;20.10;78.40;;;;;;5074135;28;20501;-34
2023/09/28 06:36:46;;;;;;;3.95;3.15;;;20.60;87.10;;;;;;5063489;28;20322;-35
2023/09/28 06:39:13;;;;;;;3.17;2.88;;;21.00;83.90;;;;;;5054510;28;20127;-29
2023/09/28 06:41:40;;;;;;;3.75;3.10;;;20.90;78.30;;;;;;5054202;28;20057;-29
2023/09/28 06:44:08;;;;;;;6.80;3.40;;;20.60;87.20;;;;;;5054864;28;20056;-28
2023/09/28 06:46:34;;;;;;;3.83;2.92;;;21.70;87.00;;;;;;5058033;28;20048;-30
2023/09/28 06:49:05;;;;;;;3.80;3.10;;;20.80;86.00;;;;;;5062624;28;20139;-28
2023/09/28 06:51:32;;;;;;;3.45;2.90;;;;;;;;;;5062081;28;20049;-29
2023/09/28 06:53:59;;;;;;;5.25;2.90;;;21.10;86.70;;;;;;5054653;28;20457;-29
2023/09/28 06:56:26;;;;;;;3.83;2.78;;;;;;;;;;5054185;28;20124;-29
2023/09/28 06:58:53;;;;;;;3.55;3.05;;;;;;;;;;5072057;28;20045;-29
2023/09/28 07:01:20;;;;;;;3.30;2.60;;;20.70;81.20;;;;;;5064630;28;20550;-29
2023/09/28 07:03:52;;;;;;;4.88;2.92;;;20.80;85.30;;;;;;5054334;28;20131;-29
2023/09/28 07:06:21;;;;;;;3.58;2.90;;;21.60;85.10;;;;;;5054381;28;20050;-29
2023/09/28 07:08:48;;;;;;;3.58;2.80;;;20.10;84.40;;;;;;5054104;28;20493;-29
2023/09/28 07:11:15;;;;;;;4.40;2.78;;;21.20;84.70;;;;;;5061986;28;20502;-30
2023/09/28 07:13:42;;;;;;;4.05;2.95;;;;;;;;;;5073950;28;20072;-29
2023/09/28 07:16:09;;;;;;;4.95;2.95;;;21.10;84.50;;;;;;5074035;28;20056;-33
2023/09/28 07:18:37;;;;;;;4.47;2.90;;;21.30;84.60;;;;;;5069067;28;20465;-36
2023/09/28 07:21:03;;;;;;;4.35;2.50;;;21.00;84.40;;;;;;5053741;28;20119;-34
2023/09/28 07:23:31;;;;;;;4.07;2.85;;;21.40;67.00;;;;;;5053569;28;20053;-32
2023/09/28 07:26:00;;;;;;;5.18;2.78;;;;;;;;;;5064103;28;20140;-34
2023/09/28 07:28:28;;;;;;;5.75;2.90;;;22.40;76.00;;;;;;5063503;28;20105;-32
2023/09/28 07:30:55;;;;;;;4.45;2.65;;;;;;;;;;5073603;28;20052;-30
2023/09/28 07:33:22;;;;;;;4.63;2.67;;;21.80;84.80;;;;;;5066763;28;20119;-33
2023/09/28 07:35:49;;;;;;;5.05;3.20;;;;;;;;;;5073614;28;20131;-32
2023/09/28 07:38:16;;;;;;;3.17;2.58;;;22.30;85.00;;;;;;5073612;28;20083;-34
2023/09/28 07:40:44;;;;;;;3.95;2.80;;;21.20;70.10;;;;;;5068727;28;20049;-31
2023/09/28 07:43:11;;;;;;;3.63;2.70;;;;;;;;;;5066369;28;20548;-32
2023/09/28 07:45:38;;;;;;;5.15;2.92;;;21.10;85.10;;;;;;5060647;28;20566;-34
2023/09/28 07:48:06;;;;;;;3.78;3.00;;;21.40;66.80;;;;;;5053631;28;20136;-34
2023/09/28 07:50:33;;;;;;;4.35;2.40;;;;;;;;;;5057017;28;20466;-34
2023/09/28 07:53:00;;;;;;;4.97;2.70;;;22.10;83.60;;;;;;5072164;28;20127;-33
2023/09/28 07:55:27;;;;;;;3.63;2.80;;;21.30;84.40;;;;;;5067789;28;20090;-32
2023/09/28 07:57:55;;;;;;;3.40;2.50;;;21.40;66.80;;;;;;5072480;28;20132;-34
2023/09/28 08:00:22;;;;;;;4.32;2.75;;;;;;;;;;5073069;28;20115;-32
2023/09/28 08:02:49;;;;;;;3.60;2.72;;;21.90;84.90;;;;;;5073163;28;20131;-33
2023/09/28 08:05:15;;;;;;;4.43;2.78;;;20.90;85.00;;;;;;5067430;28;20055;-35
2023/09/28 08:07:42;;;;;;;3.97;2.70;;;;;;;;;;5066703;28;20127;-31
2023/09/28 08:10:10;;;;;;;4.07;2.75;;;20.90;84.10;;;;;;5073052;28;20127;-35
2023/09/28 08:12:37;;;;;;;3.92;2.55;;;21.00;84.20;;;;;;5072510;28;20413;-34
2023/09/28 08:15:06;;;;;;;5.40;2.67;;;22.10;80.20;;;;;;5073126;28;20131;-35
2023/09/28 08:17:33;;;;;;;4.20;3.00;;;21.10;74.60;;;;;;5072174;28;20131;-29
2023/09/28 08:20:02;;;;;;;4.38;2.65;;;;;;;;;;5072059;28;20537;-30
2023/09/28 08:22:28;;;;;;;5.22;3.00;;;20.90;76.80;;;;;;5072460;28;20076;-29
2023/09/28 08:24:55;;;;;;;3.95;2.80;;;21.80;85.20;;;;;;5052819;28;20128;-28
2023/09/28 08:27:22;;;;;;;4.78;2.65;;;;;;;;;;5062866;28;20127;-28
2023/09/28 08:29:49;;;;;;;3.85;2.70;;;21.20;84.70;;;;;;5065721;28;20501;-28
2023/09/28 08:32:17;;;;;;;6.38;2.70;;;20.70;84.70;;;;;;5064537;28;20131;-28
2023/09/28 08:34:44;;;;;;;3.80;2.50;;;21.30;84.70;;;;;;5053380;28;20414;-29
2023/09/28 08:37:11;;;;;;;6.13;2.85;;;;;;;;;;5056469;28;20524;-35
2023/09/28 08:39:38;;;;;;;5.18;2.97;;;22.20;85.20;;;;;;5065723;28;20052;-34
2023/09/28 08:42:05;;;;;;;6.63;3.05;;;;;;;;;;5072110;28;20493;-33
2023/09/28 08:44:32;;;;;;;7.43;3.00;;;20.20;84.10;;;;;;5072357;28;20146;-37
2023/09/28 08:47:00;;;;;;;5.05;2.60;;;21.10;67.30;;;;;;5072042;28;20040;-31
2023/09/28 08:49:29;;;;;;;4.72;3.13;;;21.20;85.60;;;;;;5054538;28;20053;-33
2023/09/28 08:51:56;;;;;;;4.90;2.47;;;;;;;;;;5058307;28;20068;-34
2023/09/28 08:54:23;;;;;;;5.90;2.60;;;20.80;85.40;;;;;;5056576;28;20136;-35
2023/09/28 08:56:52;;;;;;;5.15;2.75;;;21.50;70.90;;;;;;5059916;28;20123;-34
2023/09/28 08:59:19;;;;;;;3.80;2.75;;;21.20;84.80;;;;;;5060351;28;20041;-35
2023/09/28 09:01:46;;;;;;;6.28;2.78;;;20.80;76.90;;;;;;5059741;28;20128;-34
2023/09/28 09:04:12;;;;;;;5.28;2.60;;;21.40;85.50;;;;;;5062771;28;20044;-35
2023/09/28 09:06:41;;;;;;;5.38;3.30;;;21.00;67.40;;;;;;5062113;28;20143;-35
2023/09/28 09:09:14;;;;;;;6.97;3.20;;;;;;;;;;5060775;28;20080;-36
2023/09/28 09:11:43;;;;;;;6.22;2.85;;;21.10;84.90;;;;;;5069463;28;20337;-32
2023/09/28 09:14:11;;;;;;;7.88;4.35;;;20.50;82.00;;;;;;5062172;28;20131;-34
2023/09/28 09:16:38;;;;;;;8.32;2.90;;;20.90;85.30;;;;;;5051820;28;20045;-35
2023/09/28 09:19:06;;;;;;;7.35;2.63;;;21.60;85.80;;;;;;5051877;28;20056;-37
2023/09/28 09:21:41;;;;;;;5.53;2.90;;;20.80;81.00;;;;;;5053645;28;20106;-34
2023/09/28 09:24:10;;;;;;;8.23;3.00;;;19.90;84.50;;;;;;5056770;28;20051;-35
2023/09/28 09:26:40;;;;;;;8.45;3.20;;;21.00;67.60;;;;;;5053128;28;20052;-33
2023/09/28 09:29:07;;;;;;;7.10;2.78;;;21.20;86.10;;;;;;5061723;28;20052;-33
2023/09/28 09:31:34;;;;;;;5.72;3.13;;;;;;;;;;5059501;28;20060;-31
2023/09/28 09:34:04;;;;;;;7.65;3.08;;;21.00;85.60;;;;;;5064705;28;20143;-33
2023/09/28 09:36:31;;;;;;;4.57;2.80;;;;;;;;;;5071037;28;20143;-34
2023/09/28 09:39:00;;;;;;;5.88;2.58;;;21.00;67.80;;;;;;5071650;28;20394;-29
2023/09/28 09:41:27;;;;;;;7.60;3.33;;;;;;;;;;5063952;28;20067;-29
2023/09/28 09:43:54;;;;;;;6.25;2.92;;;21.50;85.80;;;;;;5067675;28;20144;-28
2023/09/28 09:46:21;;;;;;;7.15;3.17;;;;;;;;;;5069404;28;20378;-29
2023/09/28 09:48:48;;;;;;;8.15;3.25;;;21.10;85.30;;;;;;5071524;28;20131;-28
2023/09/28 09:51:15;;;;;;;6.13;2.85;;;;;;;;;;5071578;28;20131;-30
2023/09/28 09:53:42;;;;;;;4.60;2.60;;;20.90;85.20;;;;;;5071440;28;20123;-28
2023/09/28 09:56:11;;;;;;;4.28;2.58;;;20.80;68.00;;;;;;5068459;28;20694;-29
2023/09/28 09:58:41;;;;;;;5.25;2.58;;;21.30;85.80;;;;;;5070175;28;20084;-29
2023/09/28 10:01:12;;;;;;;8.55;2.63;;;20.90;85.60;;;;;;5070747;28;20132;-30
2023/09/28 10:03:40;;;;;;;5.82;2.97;;;20.90;67.80;;;;;;5070751;28;20048;-29
2023/09/28 10:06:07;;;;;;;7.00;2.92;;;20.60;85.10;;;;;;5072863;28;20040;-28
2023/09/28 10:08:34;;;;;;;5.85;2.40;;;;;;;;;;5075401;28;20471;-30
2023/09/28 10:11:01;;;;;;;7.80;2.95;;;20.90;67.80;;;;;;5074803;28;20064;-30
2023/09/28 10:13:31;;;;;;;6.43;2.70;;;20.70;85.20;;;;;;5074788;28;20049;-29
2023/09/28 10:15:59;;;;;;;9.65;3.13;;;20.90;75.50;;;;;;5066600;28;20047;-29
2023/09/28 10:18:26;;;;;;;7.75;2.90;;;;;;;;;;5059005;28;20063;-29
2023/09/28 10:20:53;;;;;;;6.90;2.50;;;21.50;86.50;;;;;;5075202;28;20131;-29
2023/09/28 10:23:23;;;;;;;7.18;3.08;;;20.90;67.80;;;;;;5074928;28;20131;-29
2023/09/28 10:25:54;;;;;;;7.18;2.72;;;20.30;68.10;;;;;;5075294;28;20048;-30
2023/09/28 10:28:21;;;;;;;6.30;2.72;;;20.20;85.30;;;;;;5075062;28;20123;-30
2023/09/28 10:31:01;;;;;;;8.32;3.00;;;20.90;67.80;;;;;;5072867;28;20576;-32
2023/09/28 10:33:29;;;;;;;6.93;2.53;;;21.80;86.10;;;;;;5063441;28;20087;-33
2023/09/28 10:36:14;;;;;;;7.68;2.80;;;20.90;67.90;;;;;;5061488;28;20044;-34
2023/09/28 10:38:41;;;;;;;8.65;2.83;;;20.80;85.80;;;;;;5053347;28;20047;-34
2023/09/28 10:41:08;;;;;;;6.88;2.60;;;20.50;85.60;;;;;;5054081;28;20045;-37
2023/09/28 10:43:38;;;;;;;8.73;3.10;;;20.80;67.90;;;;;;5066701;28;20056;-35
2023/09/28 10:46:07;;;;;;;6.80;2.83;;;21.00;78.80;;;;;;5064318;28;20128;-34
2023/09/28 10:48:39;;;;;;;5.10;2.70;;;19.90;85.30;;;;;;5060236;28;20405;-34
2023/09/28 10:51:09;;;;;;;9.82;2.90;;;20.70;85.70;;;;;;5061551;28;20057;-34
2023/09/28 10:53:37;;;;;;;7.47;2.83;;;;;;;;;;5068386;28;20049;-32
2023/09/28 10:56:05;;;;;;;7.07;3.40;;;21.30;86.50;;;;;;5065079;28;20132;-35
2023/09/28 10:58:33;;;;;;;4.95;2.38;;;;;;;;;;5062736;28;20052;-35
2023/09/28 11:01:04;;;;;;;7.30;2.60;;;21.40;86.00;;;;;;5054071;28;20417;-35
2023/09/28 11:03:33;;;;;;;8.07;2.85;;;21.40;73.40;;;;;;5053474;28;20075;-33
2023/09/28 11:06:00;;;;;;;5.85;2.45;;;20.80;80.00;;;;;;5053901;28;20128;-32
2023/09/28 11:08:27;;;;;;;6.47;2.53;;;20.10;85.10;;;;;;5054596;28;20052;-34
2023/09/28 11:10:55;;;;;;;9.32;3.08;;;21.60;78.50;;;;;;5053993;28;20497;-35
2023/09/28 11:13:22;;;;;;;7.53;2.40;;;;;;;;;;5054124;28;20053;-34
2023/09/28 11:15:49;;;;;;;8.13;2.58;;;20.60;85.20;;;;;;5054010;28;20131;-34
2023/09/28 11:18:17;;;;;;;9.20;3.08;;;20.80;77.30;;;;;;5052973;28;20048;-33
2023/09/28 11:20:45;;;;;;;7.07;2.80;;;21.10;85.50;;;;;;5054185;28;20413;-35
2023/09/28 11:23:12;;;;;;;8.77;2.78;;;20.70;68.00;;;;;;5053822;28;20135;-35
2023/09/28 11:25:39;;;;;;;10.30;2.60;;;20.10;84.90;;;;;;5053958;28;20081;-34
2023/09/28 11:28:06;;;;;;;11.43;2.63;;;;;;;;;;5059016;28;20127;-31
2023/09/28 11:30:33;;;;;;;8.10;3.05;;;21.40;86.50;;;;;;5073611;28;20059;-28
2023/09/28 11:33:03;;;;;;;6.47;2.33;;;20.90;67.80;;;;;;5073733;28;20132;-29
2023/09/28 11:35:29;;;;;;;8.50;2.60;;;20.90;86.10;;;;;;5073216;28;20469;-29
2023/09/28 11:38:00;;;;;;;9.20;2.67;;;20.90;67.80;;;;;;5059850;28;20095;-31
2023/09/28 11:40:27;;;;;;;7.88;2.60;;;19.70;84.60;;;;;;5053914;28;20049;-28
2023/09/28 11:42:54;;;;;;;7.90;2.70;;;20.40;85.80;;;;;;5068645;28;20049;-29
2023/09/28 11:45:27;;;;;;;9.50;2.88;;;20.90;67.80;;;;;;5062868;28;20051;-29
2023/09/28 11:47:53;;;;;;;8.77;3.00;;;20.70;85.50;;;;;;5053055;28;20125;-29
2023/09/28 11:50:20;;;;;;;8.50;2.35;;;21.50;85.90;;;;;;5053164;28;20037;-30
2023/09/28 11:52:47;;;;;;;8.10;2.70;;;20.70;79.40;;;;;;5052597;28;20123;-29
2023/09/28 11:55:16;;;;;;;9.73;2.42;;;20.90;67.80;;;;;;5060621;28;20048;-28
2023/09/28 11:57:44;;;;;;;6.68;2.67;;;;;;;;;;5064676;28;20055;-30
2023/09/28 12:00:18;;;;;;;10.88;3.20;;;20.90;67.70;;;;;;5061349;28;20056;-28
2023/09/28 12:02:45;;;;;;;8.45;2.50;;;20.50;84.90;;;;;;5064609;28;20049;-36
2023/09/28 12:05:12;;;;;;;9.00;2.78;;;20.90;85.20;;;;;;5061616;28;20072;-36
2023/09/28 12:07:39;;;;;;;8.82;2.78;;;21.00;74.70;;;;;;5062730;28;20512;-33
2023/09/28 12:10:07;;;;;;;7.93;2.50;;;20.60;85.10;;;;;;5061956;28;20131;-33
2023/09/28 12:12:36;;;;;;;6.68;2.35;;;23.50;69.10;;;;;;5068972;28;20143;-32
2023/09/28 12:15:06;;;;;;;9.13;2.67;;;;;;;;;;5072949;28;20056;-32
2023/09/28 12:17:33;;;;;;;7.82;2.58;;;21.20;85.60;;;;;;5071958;28;20055;-36
2023/09/28 12:20:00;;;;;;;8.65;2.63;;;20.70;77.70;;;;;;5071512;28;20059;-35
2023/09/28 12:22:26;;;;;;;8.60;2.55;;;20.70;85.90;;;;;;5067077;28;20127;-34
2023/09/28 12:24:55;;;;;;;8.35;2.67;;;;;;;;;;5060551;28;20568;-31
2023/09/28 12:27:22;;;;;;;8.70;2.25;;;20.70;85.30;;;;;;5072288;28;20053;-34
2023/09/28 12:29:50;;;;;;;9.63;2.47;;;21.30;80.20;;;;;;5071753;28;20123;-33
2023/09/28 12:32:17;;;;;;;7.88;2.42;;;21.30;85.50;;;;;;5072383;28;20123;-35
2023/09/28 12:34:44;;;;;;;8.95;2.67;;;;;;;;;;5073007;28;20051;-31
2023/09/28 12:37:11;;;;;;;8.85;2.70;;;;;;;;;;5063433;28;20131;-33
2023/09/28 12:39:38;;;;;;;6.00;2.35;;;;;;;;;;5062917;28;20075;-33
2023/09/28 12:42:05;;;;;;;7.35;2.40;;;21.00;85.50;;;;;;5063005;28;20045;-35
2023/09/28 12:44:33;;;;;;;7.97;2.58;;;;;;;;;;5052306;28;20139;-33
2023/09/28 12:47:02;;;;;;;9.07;2.53;;;20.90;67.80;;;;;;5052056;28;20115;-31
2023/09/28 12:49:29;;;;;;;8.88;2.35;;;20.50;81.90;;;;;;5051894;28;20143;-35
2023/09/28 12:51:56;;;;;;;9.50;2.40;;;21.80;86.20;;;;;;5050597;28;20387;-33
2023/09/28 12:54:23;;;;;;;9.60;2.55;;;20.30;75.20;;;;;;5056873;28;20052;-33
2023/09/28 12:56:51;;;;;;;7.95;2.67;;;20.30;81.10;;;;;;5058966;28;20139;-34
2023/09/28 12:59:18;;;;;;;6.80;2.50;;;21.10;85.30;;;;;;5060303;28;20045;-34
2023/09/28 13:01:47;;;;;;;9.07;2.60;;;;;;;;;;5061389;28;20072;-32
2023/09/28 13:04:15;;;;;;;6.95;2.65;;;20.70;86.00;;;;;;5062554;28;20068;-34
2023/09/28 13:06:43;;;;;;;7.45;2.67;;;21.40;85.90;;;;;;5061328;28;20057;-34
2023/09/28 13:09:10;;;;;;;8.25;2.67;;;21.20;85.80;;;;;;5060740;28;20094;-37
2023/09/28 13:11:37;;;;;;;7.43;2.50;;;;;;;;;;5058722;28;20488;-32